createdAt,value
2023-02-03T17:57:34.240Z,7.86
2023-02-03T18:00:01.652Z,7.66
2023-02-03T18:02:45.431Z,8.71
2023-02-03T18:05:18.805Z,9.01
2023-02-03T18:07:52.316Z,9.37
2023-02-03T18:21:49.322Z,8.13
2023-02-03T18:24:22.578Z,7.92
2023-02-03T18:26:58.311Z,8.43
2023-02-03T18:29:31.678Z,8.38
2023-02-03T18:32:05.291Z,8.37
2023-02-03T18:34:38.844Z,6.73
2023-02-03T18:37:14.288Z,7.78
2023-02-03T18:39:47.549Z,7.58
2023-02-03T18:49:10.415Z,8.32
2023-02-03T18:51:43.536Z,9.10
2023-02-03T18:54:19.477Z,7.85
2023-02-03T18:56:58.865Z,8.14
2023-02-03T18:59:39.336Z,7.35
2023-02-03T19:02:12.715Z,7.50
2023-02-03T19:04:46.306Z,7.99
2023-02-03T19:15:18.351Z,8.36
2023-02-03T19:17:58.312Z,8.25
2023-02-03T19:20:31.925Z,8.42
2023-02-03T19:23:05.316Z,9.53
2023-02-03T19:25:39.288Z,8.39
2023-02-03T19:28:20.269Z,7.96
2023-02-03T19:42:07.310Z,8.07
2023-02-03T19:44:40.610Z,8.82
2023-02-03T19:47:14.356Z,9.19
2023-02-03T19:49:47.603Z,8.66
2023-02-03T19:52:22.161Z,8.72
2023-02-03T19:54:55.583Z,7.21
2023-02-03T19:57:31.463Z,7.54
2023-02-03T20:10:41.329Z,7.59
2023-02-03T20:13:16.493Z,7.90
2023-02-03T20:15:50.411Z,8.07
2023-02-03T20:18:23.681Z,7.19
2023-02-03T20:20:57.320Z,8.22
2023-02-03T20:23:31.745Z,8.55
2023-02-03T20:36:22.332Z,7.02
2023-02-03T20:39:02.306Z,8.00
2023-02-03T20:41:35.545Z,8.29
2023-02-03T20:44:09.302Z,8.55
2023-02-03T20:46:42.627Z,8.27
2023-02-03T20:49:17.345Z,7.70
2023-02-03T21:02:33.888Z,8.94
2023-02-03T21:05:25.262Z,8.03
2023-02-03T21:08:05.380Z,8.10
2023-02-03T21:10:38.686Z,7.17
2023-02-03T21:13:26.388Z,7.35
2023-02-03T21:16:00.735Z,6.44
2023-02-03T21:18:44.515Z,6.94
2023-02-03T21:29:05.270Z,6.50
2023-02-03T21:31:46.308Z,6.26
2023-02-03T21:34:27.765Z,5.13
2023-02-03T21:37:31.342Z,5.17
2023-02-03T21:40:21.372Z,4.41
2023-02-03T21:43:02.279Z,4.12
2023-02-03T21:56:30.389Z,4.15
2023-02-03T21:59:13.142Z,3.66
2023-02-03T22:01:54.285Z,3.74
2023-02-03T22:04:29.160Z,4.47
2023-02-03T22:07:04.035Z,4.15
2023-02-03T22:09:37.501Z,3.90
2023-02-03T22:22:36.254Z,4.21
2023-02-03T22:25:16.321Z,4.19
2023-02-03T22:27:51.177Z,4.24
2023-02-03T22:30:26.337Z,4.38
2023-02-03T22:32:59.629Z,3.97
2023-02-03T22:35:33.274Z,3.64
2023-02-03T22:38:08.659Z,2.84
2023-02-03T22:50:57.256Z,2.34
2023-02-03T22:53:39.274Z,2.41
2023-02-03T22:56:12.559Z,2.18
2023-02-03T22:58:46.377Z,2.16
2023-02-03T23:01:19.512Z,1.75
2023-02-03T23:03:46.219Z,1.72
2023-02-03T23:16:43.312Z,1.50
2023-02-03T23:19:23.276Z,1.34
2023-02-03T23:21:56.597Z,1.26
2023-02-03T23:24:30.280Z,1.51
2023-02-03T23:27:03.811Z,1.52
2023-02-03T23:29:37.298Z,1.13
2023-02-03T23:42:54.294Z,1.04
2023-02-03T23:45:27.546Z,0.88
2023-02-03T23:48:01.308Z,0.84
2023-02-03T23:50:34.530Z,0.72
2023-02-03T23:53:08.273Z,0.79
2023-02-03T23:55:41.474Z,0.68
2023-02-03T23:58:16.259Z,0.72
